createdAt,value
2018-08-24T00:02:10.346Z,25.67
2018-08-24T00:04:36.742Z,25.66
2018-08-24T00:07:03.109Z,25.64
2018-08-24T00:09:29.505Z,25.65
2018-08-24T00:11:55.860Z,25.63
2018-08-24T00:14:22.225Z,25.62
2018-08-24T00:16:48.613Z,25.62
2018-08-24T00:19:15.047Z,25.64
2018-08-24T00:21:41.437Z,25.62
2018-08-24T00:24:07.840Z,25.61
2018-08-24T00:26:34.235Z,25.62
2018-08-24T00:29:00.612Z,25.63
2018-08-24T00:31:26.999Z,25.58
2018-08-24T00:33:53.362Z,25.59
2018-08-24T00:36:19.787Z,25.58
2018-08-24T00:38:46.151Z,25.58
2018-08-24T00:41:12.484Z,25.57
2018-08-24T00:43:38.883Z,25.56
2018-08-24T00:46:05.230Z,25.55
2018-08-24T00:48:31.662Z,25.55
2018-08-24T00:50:58.038Z,25.58
2018-08-24T00:53:24.425Z,25.57
2018-08-24T00:55:50.829Z,25.57
2018-08-24T00:58:17.184Z,25.56
2018-08-24T01:00:43.549Z,25.54
2018-08-24T01:03:09.903Z,25.53
2018-08-24T01:05:36.480Z,25.45
2018-08-24T01:08:02.978Z,25.46
2018-08-24T01:10:29.328Z,25.39
2018-08-24T01:12:55.707Z,25.29
2018-08-24T01:15:22.076Z,25.22
2018-08-24T01:17:48.432Z,25.15
2018-08-24T01:20:14.775Z,25.07
2018-08-24T01:22:41.161Z,25.10
2018-08-24T01:25:07.528Z,25.07
2018-08-24T01:27:33.929Z,25.09
2018-08-24T01:30:00.263Z,25.02
2018-08-24T01:32:26.634Z,25.06
2018-08-24T01:34:52.977Z,25.02
2018-08-24T01:37:19.386Z,24.99
2018-08-24T01:39:45.721Z,25.05
2018-08-24T01:42:12.046Z,25.04
2018-08-24T01:44:38.391Z,25.01
2018-08-24T01:47:04.812Z,24.97
2018-08-24T01:49:31.225Z,24.94
2018-08-24T01:51:57.573Z,24.88
2018-08-24T01:54:24.078Z,24.95
2018-08-24T01:56:50.439Z,24.93
2018-08-24T01:59:16.879Z,24.87
2018-08-24T02:01:43.270Z,24.89
2018-08-24T02:04:09.750Z,24.82
2018-08-24T02:06:36.134Z,24.84
2018-08-24T02:09:02.469Z,24.82
2018-08-24T02:11:28.801Z,24.91
2018-08-24T02:13:55.139Z,24.87
2018-08-24T02:16:21.492Z,24.89
2018-08-24T02:18:47.898Z,24.86
2018-08-24T02:21:14.247Z,24.88
2018-08-24T02:23:40.615Z,24.87
2018-08-24T02:26:06.987Z,24.88
2018-08-24T02:28:33.359Z,24.83
2018-08-24T02:30:59.823Z,24.81
2018-08-24T02:33:26.180Z,24.80
2018-08-24T02:35:52.620Z,24.80
2018-08-24T02:38:19.038Z,24.75
2018-08-24T02:40:45.396Z,24.85
2018-08-24T02:43:11.748Z,24.86
2018-08-24T02:45:38.107Z,24.81
2018-08-24T02:48:04.482Z,24.79
2018-08-24T02:50:30.905Z,24.83
2018-08-24T02:52:57.299Z,24.83
2018-08-24T02:55:23.734Z,24.86
2018-08-24T02:57:50.078Z,24.79
2018-08-24T03:00:16.403Z,24.81
2018-08-24T03:02:42.780Z,24.82
2018-08-24T03:05:09.199Z,24.77
2018-08-24T03:07:35.531Z,24.83
2018-08-24T03:10:01.887Z,24.84
2018-08-24T03:12:28.225Z,24.79
2018-08-24T03:14:54.551Z,24.75
2018-08-24T03:17:20.956Z,24.77
2018-08-24T03:19:47.286Z,24.74
2018-08-24T03:22:13.677Z,24.76
2018-08-24T03:24:40.045Z,24.78
2018-08-24T03:27:06.415Z,24.75
2018-08-24T03:29:32.769Z,24.73
2018-08-24T03:31:59.182Z,24.76
2018-08-24T03:34:25.591Z,24.73
2018-08-24T03:36:52.009Z,24.68
2018-08-24T03:39:18.405Z,24.71
2018-08-24T03:41:44.789Z,24.80
2018-08-24T03:44:11.189Z,24.80
2018-08-24T03:46:37.670Z,24.81
2018-08-24T03:49:04.012Z,24.80
2018-08-24T03:51:30.466Z,24.74
2018-08-24T03:53:56.823Z,24.75
2018-08-24T03:56:23.175Z,24.74
2018-08-24T03:58:49.574Z,24.73
2018-08-24T04:01:15.911Z,24.73
2018-08-24T04:03:42.264Z,24.76
2018-08-24T04:06:08.626Z,24.75
2018-08-24T04:08:35.091Z,24.74
2018-08-24T04:11:01.464Z,24.72
2018-08-24T04:13:27.867Z,24.70
2018-08-24T04:15:54.284Z,24.71
2018-08-24T04:18:20.634Z,24.73
2018-08-24T04:20:46.991Z,24.60
2018-08-24T04:23:13.336Z,24.58
2018-08-24T04:25:39.679Z,24.71
2018-08-24T04:28:06.060Z,24.76
2018-08-24T04:30:32.527Z,24.64
2018-08-24T04:32:58.874Z,24.62
2018-08-24T04:35:25.241Z,24.69
2018-08-24T04:37:51.777Z,24.69
2018-08-24T04:40:18.467Z,24.75
2018-08-24T04:42:44.845Z,24.69
2018-08-24T04:45:11.215Z,24.81
2018-08-24T04:47:37.587Z,24.83
2018-08-24T04:50:03.911Z,24.79
2018-08-24T04:52:30.370Z,24.76
2018-08-24T04:54:56.714Z,24.76
2018-08-24T04:57:23.082Z,24.79
2018-08-24T04:59:49.438Z,24.85
2018-08-24T05:02:15.767Z,24.92
2018-08-24T05:04:42.136Z,24.97
2018-08-24T05:07:08.659Z,24.93
2018-08-24T05:09:35.120Z,24.97
2018-08-24T05:12:01.482Z,24.92
2018-08-24T05:14:27.965Z,24.89
2018-08-24T05:16:54.398Z,24.93
2018-08-24T05:19:20.773Z,24.91
2018-08-24T05:21:47.171Z,24.94
2018-08-24T05:26:46.193Z,25.01
2018-08-24T05:29:12.612Z,25.01
2018-08-24T05:31:38.981Z,25.10
2018-08-24T05:34:05.412Z,25.13
2018-08-24T05:36:31.867Z,25.13
2018-08-24T05:38:58.291Z,25.19
2018-08-24T05:41:24.714Z,25.22
2018-08-24T05:43:51.065Z,25.32
2018-08-24T05:46:17.496Z,25.28
2018-08-24T05:48:43.943Z,25.25
2018-08-24T05:51:10.456Z,25.41
2018-08-24T05:53:37.736Z,25.51
2018-08-24T05:56:04.166Z,25.53
2018-08-24T05:58:30.526Z,25.62
2018-08-24T06:00:56.904Z,25.58
2018-08-24T06:03:23.388Z,25.61
2018-08-24T06:05:49.842Z,25.67
2018-08-24T06:08:16.251Z,25.67
2018-08-24T06:10:42.667Z,25.65
2018-08-24T06:13:09.060Z,25.72
2018-08-24T06:15:35.397Z,25.80
2018-08-24T06:18:01.770Z,25.75
2018-08-24T06:20:28.112Z,25.75
2018-08-24T06:22:54.536Z,25.78
2018-08-24T06:25:20.883Z,25.88
2018-08-24T06:27:47.284Z,25.83
2018-08-24T06:30:13.740Z,25.93
2018-08-24T06:32:40.144Z,25.95
2018-08-24T06:35:06.548Z,25.97
2018-08-24T06:37:32.945Z,25.96
2018-08-24T06:39:59.341Z,26.00
2018-08-24T06:42:25.806Z,26.00
2018-08-24T06:44:52.448Z,26.00
2018-08-24T06:47:18.962Z,26.02
2018-08-24T06:49:45.416Z,26.07
2018-08-24T06:52:11.775Z,26.12
2018-08-24T06:54:38.180Z,26.08
2018-08-24T06:57:04.515Z,26.13
2018-08-24T06:59:30.987Z,26.17
2018-08-24T07:01:57.366Z,26.20
2018-08-24T07:04:23.731Z,26.24
2018-08-24T07:06:50.222Z,26.29
2018-08-24T07:09:16.666Z,26.27
2018-08-24T07:11:43.468Z,26.31
2018-08-24T07:14:09.895Z,26.36
2018-08-24T07:16:36.276Z,26.35
2018-08-24T07:19:02.646Z,26.39
2018-08-24T07:21:28.966Z,26.39
2018-08-24T07:23:55.335Z,26.43
2018-08-24T07:26:21.714Z,26.46
2018-08-24T07:28:48.104Z,26.49
2018-08-24T07:31:14.576Z,26.48
2018-08-24T07:33:41.016Z,26.51
2018-08-24T07:36:07.383Z,26.53
2018-08-24T07:38:33.742Z,26.53
2018-08-24T07:41:00.146Z,26.63
2018-08-24T07:43:26.533Z,26.62
2018-08-24T07:45:53.048Z,26.62
2018-08-24T07:48:19.427Z,26.61
2018-08-24T07:50:45.838Z,26.64
2018-08-24T07:53:12.266Z,26.62
2018-08-24T07:55:38.668Z,26.64
2018-08-24T07:58:05.055Z,26.69
2018-08-24T08:00:31.460Z,26.66
2018-08-24T08:02:57.867Z,26.65
2018-08-24T08:05:24.269Z,26.67
2018-08-24T08:07:50.771Z,26.73
2018-08-24T08:10:17.159Z,26.78
2018-08-24T08:12:43.704Z,26.72
2018-08-24T08:15:09.962Z,26.66
2018-08-24T08:17:36.782Z,26.78
2018-08-24T08:20:03.138Z,26.81
2018-08-24T08:22:29.592Z,26.78
2018-08-24T08:24:55.959Z,26.80
2018-08-24T08:27:22.310Z,26.84
2018-08-24T08:29:48.767Z,26.80
2018-08-24T08:32:15.200Z,26.76
2018-08-24T08:34:41.609Z,26.75
2018-08-24T08:37:07.977Z,26.74
2018-08-24T08:39:34.329Z,26.77
2018-08-24T08:42:00.732Z,26.74
2018-08-24T08:44:27.190Z,26.67
2018-08-24T08:46:53.590Z,26.69
2018-08-24T08:49:20.026Z,26.70
2018-08-24T08:51:46.462Z,26.63
2018-08-24T08:54:12.836Z,26.71
2018-08-24T08:56:39.281Z,26.80
2018-08-24T08:59:05.630Z,26.69
2018-08-24T09:01:32.032Z,26.64
2018-08-24T09:03:58.447Z,26.59
2018-08-24T09:06:24.870Z,26.55
2018-08-24T09:08:51.232Z,26.50
2018-08-24T09:11:17.601Z,26.52
2018-08-24T09:13:43.931Z,26.70
2018-08-24T09:16:10.286Z,26.57
2018-08-24T09:18:36.667Z,26.72
2018-08-24T09:21:03.101Z,26.66
2018-08-24T09:23:29.562Z,26.62
2018-08-24T09:25:56.020Z,26.50
2018-08-24T09:28:22.371Z,26.56
2018-08-24T09:30:49.094Z,26.53
2018-08-24T09:33:15.605Z,26.52
2018-08-24T09:35:42.131Z,26.50
2018-08-24T09:38:08.499Z,26.63
2018-08-24T09:40:35.017Z,26.64
2018-08-24T09:43:01.443Z,26.61
2018-08-24T09:45:27.863Z,26.62
2018-08-24T09:47:54.367Z,26.52
2018-08-24T09:50:20.857Z,26.53
2018-08-24T09:52:47.315Z,26.54
2018-08-24T09:55:13.667Z,26.68
2018-08-24T09:57:40.163Z,26.59
2018-08-24T10:00:06.510Z,26.66
2018-08-24T10:02:32.880Z,26.69
2018-08-24T10:04:59.376Z,26.71
2018-08-24T10:07:25.890Z,26.72
2018-08-24T10:09:52.289Z,26.66
2018-08-24T10:12:18.742Z,26.57
2018-08-24T10:14:45.138Z,26.67
2018-08-24T10:17:11.515Z,26.59
2018-08-24T10:19:37.959Z,26.71
2018-08-24T10:22:04.340Z,26.67
2018-08-24T10:24:30.717Z,26.69
2018-08-24T10:26:57.156Z,26.69
2018-08-24T10:29:23.820Z,26.72
2018-08-24T10:31:50.249Z,26.71
2018-08-24T10:34:16.688Z,26.74
2018-08-24T10:36:43.111Z,26.73
2018-08-24T10:39:09.645Z,26.71
2018-08-24T10:41:35.974Z,26.80
2018-08-24T10:44:02.413Z,26.64
2018-08-24T10:46:28.888Z,26.65
2018-08-24T10:48:55.375Z,26.58
2018-08-24T10:51:21.772Z,26.76
2018-08-24T10:53:48.143Z,26.85
2018-08-24T10:56:15.516Z,26.80
2018-08-24T10:58:42.035Z,26.72
2018-08-24T11:01:08.435Z,26.87
2018-08-24T11:03:34.797Z,26.83
2018-08-24T11:06:01.176Z,26.85
2018-08-24T11:08:27.659Z,26.84
2018-08-24T11:10:54.069Z,26.81
2018-08-24T11:13:20.445Z,26.91
2018-08-24T11:15:46.885Z,26.93
2018-08-24T11:18:13.390Z,26.82
2018-08-24T11:20:39.755Z,26.80
2018-08-24T11:23:06.172Z,26.80
2018-08-24T11:25:32.566Z,26.68
2018-08-24T11:27:58.919Z,26.86
2018-08-24T11:30:25.280Z,26.78
2018-08-24T11:32:51.684Z,26.77
2018-08-24T11:35:18.116Z,26.72
2018-08-24T11:37:44.608Z,26.72
2018-08-24T11:40:11.084Z,26.75
2018-08-24T11:42:37.567Z,26.75
2018-08-24T11:45:03.951Z,26.79
2018-08-24T11:47:30.385Z,26.75
2018-08-24T11:49:56.920Z,26.82
2018-08-24T11:52:23.299Z,26.73
2018-08-24T11:54:49.675Z,26.86
2018-08-24T11:57:16.117Z,26.84
2018-08-24T11:59:42.573Z,26.88
2018-08-24T12:02:08.966Z,26.91
2018-08-24T12:04:35.383Z,26.77
2018-08-24T12:07:01.810Z,26.72
2018-08-24T12:09:28.198Z,26.92
2018-08-24T12:11:54.618Z,26.81
2018-08-24T12:14:21.051Z,26.88
2018-08-24T12:16:47.415Z,26.93
2018-08-24T12:19:13.771Z,26.78
2018-08-24T12:21:40.285Z,26.82
2018-08-24T12:24:06.661Z,26.90
2018-08-24T12:26:32.992Z,26.92
2018-08-24T12:28:59.428Z,26.95
2018-08-24T12:31:25.758Z,26.92
2018-08-24T12:33:52.193Z,26.74
2018-08-24T12:36:18.649Z,26.77
2018-08-24T12:38:45.007Z,26.90
2018-08-24T12:41:11.425Z,26.91
2018-08-24T12:43:37.779Z,26.83
2018-08-24T12:46:04.175Z,26.91
2018-08-24T12:48:30.511Z,26.97
2018-08-24T12:50:56.909Z,27.03
2018-08-24T12:53:23.287Z,27.01
2018-08-24T12:55:49.680Z,27.04
2018-08-24T12:58:16.111Z,27.03
2018-08-24T13:00:42.513Z,27.08
2018-08-24T13:03:09.819Z,26.96
2018-08-24T13:05:36.938Z,26.90
2018-08-24T13:08:03.383Z,26.88
2018-08-24T13:10:29.762Z,26.95
2018-08-24T13:12:56.151Z,26.94
2018-08-24T13:15:22.570Z,26.95
2018-08-24T13:17:49.042Z,26.96
2018-08-24T13:20:15.520Z,26.94
2018-08-24T13:22:41.916Z,27.10
2018-08-24T13:25:08.321Z,27.18
2018-08-24T13:27:34.711Z,27.07
2018-08-24T13:30:01.149Z,27.20
2018-08-24T13:32:27.510Z,27.19
2018-08-24T13:34:53.886Z,27.01
2018-08-24T13:37:20.235Z,27.23
2018-08-24T13:39:46.677Z,27.08
2018-08-24T13:42:13.138Z,27.03
2018-08-24T13:44:39.464Z,26.90
2018-08-24T13:47:05.872Z,26.94
2018-08-24T13:49:32.237Z,26.99
2018-08-24T13:51:58.717Z,26.90
2018-08-24T13:54:25.079Z,26.96
2018-08-24T13:56:51.500Z,27.12
2018-08-24T13:59:17.921Z,27.04
2018-08-24T14:01:44.253Z,26.98
2018-08-24T14:04:10.638Z,27.00
2018-08-24T14:06:37.015Z,26.93
2018-08-24T14:09:03.375Z,26.76
2018-08-24T14:11:29.722Z,26.90
2018-08-24T14:13:56.131Z,26.88
2018-08-24T14:16:22.478Z,26.85
2018-08-24T14:18:48.892Z,26.83
2018-08-24T14:21:15.240Z,26.95
2018-08-24T14:23:41.611Z,26.91
2018-08-24T14:26:07.963Z,27.03
2018-08-24T14:28:34.336Z,27.02
2018-08-24T14:31:00.713Z,26.89
2018-08-24T14:33:27.108Z,26.87
2018-08-24T14:35:53.532Z,26.75
2018-08-24T14:38:20.032Z,26.86
2018-08-24T14:40:46.345Z,26.98
2018-08-24T14:43:12.687Z,26.86
2018-08-24T14:45:39.027Z,26.88
2018-08-24T14:48:05.485Z,26.92
2018-08-24T14:50:31.871Z,26.91
2018-08-24T14:52:58.231Z,26.88
2018-08-24T14:55:24.608Z,26.91
2018-08-24T14:57:50.980Z,26.99
2018-08-24T15:00:17.310Z,27.02
2018-08-24T15:02:43.640Z,26.88
2018-08-24T15:05:09.974Z,26.74
2018-08-24T15:07:36.371Z,26.79
2018-08-24T15:10:02.815Z,26.86
2018-08-24T15:12:29.139Z,26.66
2018-08-24T15:14:55.479Z,26.64
2018-08-24T15:17:21.869Z,26.76
2018-08-24T15:19:48.379Z,26.70
2018-08-24T15:22:14.737Z,26.68
2018-08-24T15:24:41.235Z,26.61
2018-08-24T15:27:07.603Z,26.70
2018-08-24T15:29:34.108Z,26.70
2018-08-24T15:32:00.413Z,26.58
2018-08-24T15:34:26.756Z,26.54
2018-08-24T15:36:53.118Z,26.71
2018-08-24T15:39:19.462Z,26.63
2018-08-24T15:41:45.814Z,26.51
2018-08-24T15:44:12.163Z,26.49
2018-08-24T15:46:38.495Z,26.58
2018-08-24T15:49:04.851Z,26.53
2018-08-24T15:51:31.241Z,26.50
2018-08-24T15:53:57.574Z,26.52
2018-08-24T15:56:23.938Z,26.61
2018-08-24T15:58:50.273Z,26.46
2018-08-24T16:01:16.808Z,26.50
2018-08-24T16:03:43.167Z,26.49
2018-08-24T16:06:09.535Z,26.48
2018-08-24T16:08:35.873Z,26.37
2018-08-24T16:11:02.302Z,26.37
2018-08-24T16:13:28.660Z,26.49
2018-08-24T16:15:55.018Z,26.55
2018-08-24T16:18:21.351Z,26.40
2018-08-24T16:20:47.717Z,26.55
2018-08-24T16:23:14.057Z,26.56
2018-08-24T16:25:40.406Z,26.49
2018-08-24T16:28:06.803Z,26.53
2018-08-24T16:30:33.156Z,26.44
2018-08-24T16:32:59.521Z,26.50
2018-08-24T16:35:25.870Z,26.59
2018-08-24T16:37:52.219Z,26.54
2018-08-24T16:40:18.550Z,26.48
2018-08-24T16:42:44.972Z,26.48
2018-08-24T16:45:11.332Z,26.48
2018-08-24T16:47:37.663Z,26.44
2018-08-24T16:50:04.000Z,26.34
2018-08-24T16:52:30.352Z,26.28
2018-08-24T16:54:56.684Z,26.36
2018-08-24T16:57:23.015Z,26.40
2018-08-24T16:59:49.340Z,26.34
2018-08-24T17:02:15.677Z,26.27
2018-08-24T17:04:42.048Z,26.28
2018-08-24T17:07:08.386Z,26.30
2018-08-24T17:09:34.742Z,26.37
2018-08-24T17:12:01.094Z,26.46
2018-08-24T17:14:27.431Z,26.55
2018-08-24T17:16:53.759Z,26.58
2018-08-24T17:19:20.083Z,26.62
2018-08-24T17:21:46.417Z,26.66
2018-08-24T17:24:12.774Z,26.66
2018-08-24T17:26:39.111Z,26.74
2018-08-24T17:29:05.443Z,26.74
2018-08-24T17:31:31.840Z,26.78
2018-08-24T17:33:58.229Z,26.81
2018-08-24T17:36:24.605Z,26.84
2018-08-24T17:38:51.056Z,26.91
2018-08-24T17:41:17.414Z,26.92
2018-08-24T17:43:43.770Z,26.85
2018-08-24T17:46:10.140Z,26.83
2018-08-24T17:48:36.514Z,26.82
2018-08-24T17:51:02.925Z,26.80
2018-08-24T17:53:29.263Z,26.81
2018-08-24T17:55:55.607Z,26.80
2018-08-24T17:58:21.943Z,26.79
2018-08-24T18:00:48.314Z,26.81
2018-08-24T18:03:14.672Z,26.79
2018-08-24T18:05:40.996Z,26.78
2018-08-24T18:08:07.377Z,26.78
2018-08-24T18:10:33.701Z,26.79
2018-08-24T18:13:00.079Z,26.76
2018-08-24T18:15:26.417Z,26.77
2018-08-24T18:17:52.823Z,26.76
2018-08-24T18:20:19.206Z,26.79
2018-08-24T18:22:45.559Z,26.78
2018-08-24T18:25:11.921Z,26.80
2018-08-24T18:27:38.279Z,26.79
2018-08-24T18:30:04.638Z,26.78
2018-08-24T18:32:31.072Z,26.80
2018-08-24T18:34:57.530Z,26.78
2018-08-24T18:37:23.849Z,26.76
2018-08-24T18:39:50.197Z,26.73
2018-08-24T18:42:16.527Z,26.73
2018-08-24T18:44:42.880Z,26.73
2018-08-24T18:47:09.252Z,26.75
2018-08-24T18:49:35.629Z,26.73
2018-08-24T18:52:01.973Z,26.72
2018-08-24T18:54:28.308Z,26.70
2018-08-24T18:56:54.701Z,26.66
2018-08-24T18:59:21.032Z,26.62
2018-08-24T19:01:47.401Z,26.64
2018-08-24T19:04:13.733Z,26.64
2018-08-24T19:06:40.084Z,26.63
2018-08-24T19:09:06.421Z,26.61
2018-08-24T19:11:32.838Z,26.57
2018-08-24T19:13:59.234Z,26.53
2018-08-24T19:16:25.559Z,26.51
2018-08-24T19:18:51.912Z,26.50
2018-08-24T19:21:18.250Z,26.45
2018-08-24T19:23:44.595Z,26.40
2018-08-24T19:26:10.916Z,26.36
2018-08-24T19:28:37.245Z,26.32
2018-08-24T19:31:03.584Z,26.31
2018-08-24T19:33:29.906Z,26.29
2018-08-24T19:35:56.280Z,26.27
2018-08-24T19:38:22.605Z,26.24
2018-08-24T19:40:49.007Z,26.23
2018-08-24T19:43:15.381Z,26.21
2018-08-24T19:45:41.724Z,26.22
2018-08-24T19:48:08.134Z,26.17
2018-08-24T19:50:34.490Z,26.18
2018-08-24T19:53:00.822Z,26.15
2018-08-24T19:55:27.167Z,26.11
2018-08-24T19:57:53.521Z,26.09
2018-08-24T20:00:19.876Z,26.08
2018-08-24T20:02:46.207Z,26.06
2018-08-24T20:05:12.580Z,26.06
2018-08-24T20:07:38.910Z,26.04
2018-08-24T20:10:05.268Z,25.99
2018-08-24T20:12:31.591Z,26.00
2018-08-24T20:14:57.963Z,25.99
2018-08-24T20:17:24.326Z,25.94
2018-08-24T20:19:50.702Z,25.94
2018-08-24T20:22:17.030Z,25.91
2018-08-24T20:24:43.388Z,25.90
2018-08-24T20:27:09.780Z,25.90
2018-08-24T20:29:36.161Z,25.89
2018-08-24T20:32:02.498Z,25.86
2018-08-24T20:34:28.859Z,25.84
2018-08-24T20:36:55.243Z,25.81
2018-08-24T20:39:21.602Z,25.85
2018-08-24T20:41:47.964Z,25.78
2018-08-24T20:44:14.282Z,25.75
2018-08-24T20:46:40.643Z,25.74
2018-08-24T20:49:07.048Z,25.72
2018-08-24T20:51:33.400Z,25.69
2018-08-24T20:53:59.757Z,25.69
2018-08-24T20:56:26.138Z,25.69
2018-08-24T20:58:52.483Z,25.68
2018-08-24T21:01:18.859Z,25.68
2018-08-24T21:03:45.182Z,25.70
2018-08-24T21:06:11.540Z,25.62
2018-08-24T21:08:37.955Z,25.61
2018-08-24T21:11:04.285Z,25.59
2018-08-24T21:13:30.664Z,25.59
2018-08-24T21:15:57.021Z,25.61
2018-08-24T21:18:23.350Z,25.62
2018-08-24T21:20:49.709Z,25.62
2018-08-24T21:23:16.040Z,25.56
2018-08-24T21:25:42.423Z,25.58
2018-08-24T21:28:08.795Z,25.55
2018-08-24T21:30:35.191Z,25.55
2018-08-24T21:33:01.545Z,25.53
2018-08-24T21:35:27.946Z,25.53
2018-08-24T21:37:54.279Z,25.54
2018-08-24T21:40:20.642Z,25.48
2018-08-24T21:42:47.014Z,25.45
2018-08-24T21:45:13.398Z,25.41
2018-08-24T21:47:39.799Z,25.38
2018-08-24T21:50:06.140Z,25.37
2018-08-24T21:52:32.475Z,25.34
2018-08-24T21:54:58.906Z,25.34
2018-08-24T21:57:25.284Z,25.33
2018-08-24T21:59:51.661Z,25.32
2018-08-24T22:02:18.044Z,25.31
2018-08-24T22:04:44.456Z,25.31
2018-08-24T22:07:10.818Z,25.33
2018-08-24T22:09:37.143Z,25.28
2018-08-24T22:12:03.570Z,25.25
2018-08-24T22:14:29.988Z,25.25
2018-08-24T22:16:56.437Z,25.24
2018-08-24T22:19:22.740Z,25.22
2018-08-24T22:21:49.134Z,25.23
2018-08-24T22:24:15.479Z,25.17
2018-08-24T22:26:41.811Z,25.19
2018-08-24T22:29:08.236Z,25.20
2018-08-24T22:31:34.575Z,25.14
2018-08-24T22:34:00.954Z,25.17
2018-08-24T22:36:27.295Z,25.15
2018-08-24T22:38:53.652Z,25.12
2018-08-24T22:41:19.977Z,25.16
2018-08-24T22:43:46.353Z,25.11
2018-08-24T22:46:12.733Z,25.10
2018-08-24T22:48:39.138Z,25.11
2018-08-24T22:51:05.496Z,25.10
2018-08-24T22:53:31.823Z,25.06
2018-08-24T22:55:58.200Z,25.05
2018-08-24T22:58:24.527Z,25.02
2018-08-24T23:00:50.858Z,24.99
2018-08-24T23:03:17.192Z,25.01
2018-08-24T23:05:43.552Z,25.03
2018-08-24T23:08:09.948Z,25.03
2018-08-24T23:10:36.281Z,25.02
2018-08-24T23:13:02.643Z,24.97
2018-08-24T23:15:29.043Z,24.97
2018-08-24T23:17:55.383Z,24.95
2018-08-24T23:20:21.707Z,24.93
2018-08-24T23:22:48.035Z,24.93
2018-08-24T23:25:14.378Z,24.95
2018-08-24T23:27:40.695Z,24.92
2018-08-24T23:30:07.061Z,24.94
2018-08-24T23:32:33.400Z,24.94
2018-08-24T23:34:59.766Z,24.91
2018-08-24T23:37:26.193Z,24.91
2018-08-24T23:39:52.529Z,24.91
2018-08-24T23:42:18.921Z,24.84
2018-08-24T23:44:45.275Z,24.84
2018-08-24T23:47:11.612Z,24.83
2018-08-24T23:49:38.012Z,24.83
2018-08-24T23:52:04.345Z,24.83
2018-08-24T23:54:30.709Z,24.82
2018-08-24T23:56:57.044Z,24.86
2018-08-24T23:59:23.363Z,24.87
